Time;durP1;ratioP1;P1;durP2;ratioP2;P2;SDS_P1;SDS_P2;PMS_P1;PMS_P2;Temp;Humidity;BMP_temperature;BMP_pressure;BME280_temperature;BME280_humidity;BME280_pressure;Samples;Min_cycle;Max_cycle;Signal;HPM_P1;HPM_P2
2024/01/03 00:04:04;;;;;;;7.20;1.70;;;;;;;;;;2614985;54;20946;-75
2024/01/03 00:09:34;;;;;;;14.13;3.30;;;;;;;;;;2614863;39;20850;-75
2024/01/03 00:24:17;;;;;;;8.43;2.73;;;;;;;;;;2613962;54;20406;-76
2024/01/03 00:29:50;;;;;;;4.20;1.43;;;;;;;;;;2615194;54;20363;-77
2024/01/03 00:35:20;;;;;;;9.57;1.80;;;;;;;;;;2614692;39;20758;-77
2024/01/03 00:40:51;;;;;;;9.70;2.27;;;;;;;;;;2615270;54;20333;-76
2024/01/03 00:46:20;;;;;;;7.37;2.50;;;;;;;;;;2615496;54;20375;-75
2024/01/03 00:51:50;;;;;;;11.87;2.90;;;;;;;;;;2613197;54;20386;-71
2024/01/03 00:57:20;;;;;;;14.97;2.77;;;;;;;;;;2613351;54;20995;-73
2024/01/03 01:02:50;;;;;;;9.17;3.30;;;;;;;;;;2615225;54;20357;-73
2024/01/03 01:08:20;;;;;;;11.13;3.33;;;;;;;;;;2613611;54;20354;-74
2024/01/03 01:13:49;;;;;;;6.73;2.87;;;;;;;;;;2614518;54;20521;-71
2024/01/03 01:19:19;;;;;;;8.63;2.77;;;;;;;;;;2613779;39;20750;-75
2024/01/03 01:25:08;;;;;;;10.90;3.90;;;;;;;;;;2614292;54;20461;-72
2024/01/03 01:30:37;;;;;;;8.53;2.53;;;;;;;;;;2613171;54;20370;-72
2024/01/03 01:36:07;;;;;;;4.10;1.90;;;;;;;;;;2615338;54;20403;-72
2024/01/03 01:41:37;;;;;;;4.13;1.63;;;;;;;;;;2615725;31;20875;-72
2024/01/03 01:47:10;;;;;;;5.93;3.63;;;;;;;;;;2615132;39;20858;-75
2024/01/03 01:52:40;;;;;;;15.20;3.50;;;;;;;;;;2614171;54;20333;-72
2024/01/03 01:58:09;;;;;;;5.17;2.27;;;;;;;;;;2614986;39;20747;-73
2024/01/03 02:03:40;;;;;;;9.50;2.73;;;;;;;;;;2613837;54;20391;-75
2024/01/03 02:09:11;;;;;;;9.90;2.17;;;;;;;;;;2614211;39;20522;-75
2024/01/03 02:14:41;;;;;;;12.53;2.80;;;;;;;;;;2614219;54;20364;-75
2024/01/03 02:20:12;;;;;;;4.93;1.17;;;;;;;;;;2613575;54;20476;-73
2024/01/03 02:29:17;;;;;;;9.33;1.43;;;;;;;;;;2613309;54;20391;-76
2024/01/03 02:34:46;;;;;;;3.13;1.80;;;;;;;;;;2613101;54;20398;-74
2024/01/03 02:40:17;;;;;;;4.50;1.80;;;;;;;;;;2613386;54;20992;-76
2024/01/03 02:45:47;;;;;;;11.07;3.40;;;;;;;;;;2613895;54;20419;-75
2024/01/03 02:51:20;;;;;;;4.93;1.17;;;;;;;;;;2612424;54;20419;-75
2024/01/03 02:56:50;;;;;;;5.03;1.63;;;;;;;;;;2614210;54;20394;-74
2024/01/03 03:02:19;;;;;;;4.90;1.20;;;;;;;;;;2614328;54;20431;-74
2024/01/03 03:07:49;;;;;;;4.20;1.43;;;;;;;;;;2613484;54;20381;-75
2024/01/03 03:13:19;;;;;;;4.67;1.90;;;;;;;;;;2613878;39;20749;-74
2024/01/03 03:18:48;;;;;;;4.50;1.53;;;;;;;;;;2612851;54;20403;-74
2024/01/03 03:24:18;;;;;;;6.80;1.80;;;;;;;;;;2613164;54;20365;-72
2024/01/03 03:29:47;;;;;;;4.63;1.40;;;;;;;;;;2613843;54;20474;-71
2024/01/03 03:35:17;;;;;;;7.83;1.90;;;;;;;;;;2613811;54;20350;-71
2024/01/03 03:40:48;;;;;;;5.00;1.50;;;;;;;;;;2613932;54;20379;-71
2024/01/03 03:46:19;;;;;;;7.13;1.77;;;;;;;;;;2613965;54;20393;-71
2024/01/03 03:51:48;;;;;;;4.67;1.23;;;;;;;;;;2612696;54;20501;-72
2024/01/03 03:57:17;;;;;;;8.33;2.27;;;;;;;;;;2614363;54;20414;-72
2024/01/03 04:02:47;;;;;;;5.00;1.50;;;;;;;;;;2613673;54;20357;-73
2024/01/03 04:08:17;;;;;;;3.17;2.10;;;;;;;;;;2612658;54;20373;-76
2024/01/03 04:13:47;;;;;;;8.40;1.60;;;;;;;;;;2613659;54;20377;-74
2024/01/03 04:19:16;;;;;;;5.47;2.00;;;;;;;;;;2612468;31;20915;-75
2024/01/03 04:24:46;;;;;;;2.40;1.13;;;;;;;;;;2610005;54;20385;-76
2024/01/03 04:30:16;;;;;;;3.10;1.13;;;;;;;;;;2611021;54;20941;-76
2024/01/03 04:35:45;;;;;;;4.30;1.30;;;;;;;;;;2611254;54;20386;-73
2024/01/03 04:41:16;;;;;;;5.77;1.00;;;;;;;;;;2611016;54;20393;-74
2024/01/03 04:46:46;;;;;;;6.40;1.30;;;;;;;;;;2610827;54;20904;-77
2024/01/03 04:52:15;;;;;;;6.80;1.70;;;;;;;;;;2610713;54;20876;-76
2024/01/03 04:57:45;;;;;;;7.60;1.57;;;;;;;;;;2610845;54;20370;-74
2024/01/03 05:03:16;;;;;;;8.57;1.60;;;;;;;;;;2610024;39;21779;-76
2024/01/03 05:08:46;;;;;;;21.77;2.80;;;;;;;;;;2609646;54;20490;-73
2024/01/03 05:14:15;;;;;;;5.70;1.30;;;;;;;;;;2610485;54;20380;-75
2024/01/03 05:19:45;;;;;;;6.63;2.40;;;;;;;;;;2610306;54;20366;-77
2024/01/03 05:31:23;;;;;;;12.50;1.43;;;;;;;;;;2610459;54;20943;-76
2024/01/03 05:36:52;;;;;;;3.90;1.20;;;;;;;;;;2610522;54;20393;-76
2024/01/03 05:42:23;;;;;;;9.47;1.07;;;;;;;;;;2611253;39;20868;-72
2024/01/03 05:47:52;;;;;;;2.50;1.23;;;;;;;;;;2610980;54;20403;-73
2024/01/03 05:53:22;;;;;;;2.43;1.20;;;;;;;;;;2608054;54;20426;-72
2024/01/03 05:58:52;;;;;;;4.07;1.00;;;;;;;;;;2610980;54;20401;-71
2024/01/03 06:04:22;;;;;;;4.17;1.17;;;;;;;;;;2610745;54;20502;-74
2024/01/03 06:09:51;;;;;;;5.20;0.93;;;;;;;;;;2610470;54;20989;-71
2024/01/03 06:15:21;;;;;;;1.67;1.13;;;;;;;;;;2611189;54;20494;-71
2024/01/03 06:20:51;;;;;;;3.20;1.20;;;;;;;;;;2611297;54;20464;-72
2024/01/03 06:32:28;;;;;;;2.93;1.00;;;;;;;;;;2610722;39;20859;-71
2024/01/03 06:37:58;;;;;;;3.10;1.17;;;;;;;;;;2611859;54;20357;-72
2024/01/03 06:43:27;;;;;;;4.20;1.17;;;;;;;;;;2610595;54;20358;-76
2024/01/03 06:48:57;;;;;;;5.83;1.40;;;;;;;;;;2610553;54;20458;-75
2024/01/03 06:54:27;;;;;;;3.70;1.40;;;;;;;;;;2612480;54;20421;-77
2024/01/03 06:59:57;;;;;;;3.40;1.60;;;;;;;;;;2612256;47;20912;-71
2024/01/03 07:02:42;;;;;;;5.63;1.47;;;;;;;;;;2609696;54;20448;-73
2024/01/03 07:05:08;;;;;;;2.83;0.87;;;;;;;;;;2608736;54;21064;-72
2024/01/03 07:10:39;;;;;;;7.60;1.60;;;;;;;;;;2609456;54;20904;-72
2024/01/03 07:16:09;;;;;;;4.37;2.70;;;;;;;;;;2610476;54;20940;-73
2024/01/03 07:21:39;;;;;;;3.47;1.17;;;;;;;;;;2611199;39;20744;-73
2024/01/03 07:30:49;;;;;;;10.63;2.03;;;;;;;;;;2609956;54;20422;-72
2024/01/03 07:36:19;;;;;;;7.63;2.67;;;;;;;;;;2612457;39;20767;-72
2024/01/03 07:41:49;;;;;;;5.10;2.30;;;;;;;;;;2613179;54;20370;-72
2024/01/03 07:47:19;;;;;;;9.20;2.63;;;;;;;;;;2612034;54;20366;-71
2024/01/03 07:52:49;;;;;;;10.43;2.90;;;;;;;;;;2612613;54;20964;-71
2024/01/03 07:58:18;;;;;;;6.57;2.70;;;;;;;;;;2613021;54;20441;-71
2024/01/03 08:03:48;;;;;;;7.77;2.80;;;;;;;;;;2614003;54;20353;-73
2024/01/03 08:09:18;;;;;;;7.77;1.70;;;;;;;;;;2613600;54;20430;-74
2024/01/03 08:14:47;;;;;;;4.43;1.30;;;;;;;;;;2614301;39;21239;-75
2024/01/03 08:20:18;;;;;;;10.93;2.60;;;;;;;;;;2613470;39;20727;-73
2024/01/03 08:25:47;;;;;;;7.33;1.80;;;;;;;;;;2613509;54;20487;-75
2024/01/03 08:31:18;;;;;;;10.50;1.47;;;;;;;;;;2613901;54;20927;-75
2024/01/03 08:36:47;;;;;;;1.70;0.70;;;;;;;;;;2614486;39;20784;-75
2024/01/03 08:42:17;;;;;;;0.80;0.60;;;;;;;;;;2613705;54;20391;-75
2024/01/03 08:47:47;;;;;;;2.07;0.90;;;;;;;;;;2613841;54;20397;-75
2024/01/03 08:53:19;;;;;;;2.07;0.97;;;;;;;;;;2612530;54;21039;-75
2024/01/03 08:58:51;;;;;;;3.70;0.97;;;;;;;;;;2612619;54;20381;-74
2024/01/03 09:04:20;;;;;;;12.00;1.70;;;;;;;;;;2613921;54;20374;-76
2024/01/03 09:09:50;;;;;;;5.87;1.50;;;;;;;;;;2611835;54;20360;-76
2024/01/03 09:15:20;;;;;;;3.93;1.60;;;;;;;;;;2614337;54;20327;-73
2024/01/03 09:20:50;;;;;;;5.50;2.07;;;;;;;;;;2611767;39;20732;-72
2024/01/03 09:26:20;;;;;;;7.23;1.80;;;;;;;;;;2612446;54;21038;-73
2024/01/03 09:35:21;;;;;;;12.33;3.03;;;;;;;;;;2614153;54;21067;-72
2024/01/03 09:40:52;;;;;;;11.60;2.17;;;;;;;;;;2613345;39;20495;-72
2024/01/03 09:46:21;;;;;;;13.63;1.50;;;;;;;;;;2610892;54;20370;-73
2024/01/03 09:51:52;;;;;;;7.63;1.80;;;;;;;;;;2613067;54;20379;-72
2024/01/03 09:57:23;;;;;;;4.60;1.93;;;;;;;;;;2611585;46;20476;-72
2024/01/03 10:03:00;;;;;;;11.60;1.80;;;;;;;;;;2611862;54;20399;-73
2024/01/03 10:08:29;;;;;;;8.53;2.20;;;;;;;;;;2611363;39;20778;-73
2024/01/03 10:14:18;;;;;;;4.87;1.57;;;;;;;;;;2613668;54;20393;-71
2024/01/03 10:19:48;;;;;;;9.90;3.13;;;;;;;;;;2611617;54;20395;-72
2024/01/03 10:25:17;;;;;;;5.30;1.97;;;;;;;;;;2610739;54;20383;-72
2024/01/03 10:30:53;;;;;;;7.23;2.47;;;;;;;;;;2612574;54;20831;-72
2024/01/03 10:36:23;;;;;;;9.00;2.93;;;;;;;;;;2609442;54;20394;-73
2024/01/03 10:41:56;;;;;;;3.27;1.10;;;;;;;;;;2612481;54;20359;-72
2024/01/03 10:47:26;;;;;;;24.50;2.60;;;;;;;;;;2611211;54;20382;-71
2024/01/03 10:52:57;;;;;;;10.03;4.30;;;;;;;;;;2611803;54;20355;-73
2024/01/03 10:58:28;;;;;;;5.53;1.90;;;;;;;;;;2611520;54;20390;-70
2024/01/03 11:04:17;;;;;;;6.97;2.43;;;;;;;;;;2610048;54;20366;-73
2024/01/03 11:09:48;;;;;;;11.20;2.30;;;;;;;;;;2611629;54;20369;-72
2024/01/03 11:15:25;;;;;;;7.20;2.70;;;;;;;;;;2609826;54;20389;-77
2024/01/03 11:20:54;;;;;;;4.13;2.77;;;;;;;;;;2610514;54;20390;-80
2024/01/03 11:26:43;;;;;;;10.03;2.07;;;;;;;;;;2612200;54;20380;-77
2024/01/03 11:35:40;;;;;;;11.00;3.03;;;;;;;;;;2612747;54;21083;-77
2024/01/03 11:41:10;;;;;;;5.07;2.80;;;;;;;;;;2612278;54;20433;-76
2024/01/03 11:46:40;;;;;;;11.23;2.67;;;;;;;;;;2613740;54;20418;-77
2024/01/03 11:52:10;;;;;;;3.83;1.83;;;;;;;;;;2613313;54;20437;-76
2024/01/03 11:57:41;;;;;;;6.40;2.70;;;;;;;;;;2613901;54;20386;-76
2024/01/03 12:03:11;;;;;;;6.53;2.27;;;;;;;;;;2613063;54;20462;-75
2024/01/03 12:08:41;;;;;;;3.23;1.73;;;;;;;;;;2610234;54;20430;-76
2024/01/03 12:14:10;;;;;;;7.50;2.60;;;;;;;;;;2614224;54;20478;-76
2024/01/03 12:19:40;;;;;;;4.17;2.30;;;;;;;;;;2613663;54;20389;-77
2024/01/03 12:25:26;;;;;;;6.20;2.13;;;;;;;;;;2612524;54;20405;-77
2024/01/03 12:30:56;;;;;;;2.70;1.50;;;;;;;;;;2612646;54;20378;-76
2024/01/03 12:36:26;;;;;;;5.60;1.83;;;;;;;;;;2612670;54;21007;-77
2024/01/03 12:41:56;;;;;;;4.50;1.83;;;;;;;;;;2614494;54;20531;-75
2024/01/03 12:47:25;;;;;;;11.13;2.33;;;;;;;;;;2613400;54;20354;-75
2024/01/03 12:52:55;;;;;;;5.37;2.00;;;;;;;;;;2615546;54;20386;-75
2024/01/03 12:58:25;;;;;;;7.10;2.70;;;;;;;;;;2612142;54;20487;-76
2024/01/03 13:03:55;;;;;;;6.57;2.20;;;;;;;;;;2613515;54;20412;-77
2024/01/03 13:09:25;;;;;;;6.03;3.73;;;;;;;;;;2611365;54;20445;-78
2024/01/03 13:14:55;;;;;;;12.30;3.03;;;;;;;;;;2614206;54;20442;-75
2024/01/03 13:20:25;;;;;;;10.77;2.60;;;;;;;;;;2610883;54;20358;-75
2024/01/03 13:25:56;;;;;;;5.77;2.40;;;;;;;;;;2612954;54;20477;-75
2024/01/03 13:31:25;;;;;;;2.80;1.77;;;;;;;;;;2613107;54;20412;-76
2024/01/03 13:45:58;;;;;;;4.67;1.73;;;;;;;;;;2613502;54;20364;-75
2024/01/03 13:51:28;;;;;;;0.90;0.70;;;;;;;;;;2613999;54;20914;-75
2024/01/03 13:56:57;;;;;;;3.73;1.63;;;;;;;;;;2611862;54;20397;-75
2024/01/03 14:02:27;;;;;;;3.10;1.60;;;;;;;;;;2610942;54;20361;-74
2024/01/03 14:07:58;;;;;;;2.50;1.03;;;;;;;;;;2610849;54;20429;-76
2024/01/03 14:13:27;;;;;;;6.63;1.50;;;;;;;;;;2610553;39;21039;-77
2024/01/03 14:18:57;;;;;;;3.80;1.47;;;;;;;;;;2613294;54;20374;-79
2024/01/03 14:24:27;;;;;;;3.10;0.97;;;;;;;;;;2612743;46;20803;-77
2024/01/03 14:29:58;;;;;;;5.83;1.47;;;;;;;;;;2613714;54;20538;-77
2024/01/03 14:32:43;;;;;;;4.20;1.50;;;;;;;;;;2613260;47;20453;-77
2024/01/03 14:35:09;;;;;;;3.40;1.97;;;;;;;;;;2612193;54;20425;-76
2024/01/03 14:37:35;;;;;;;7.07;3.33;;;;;;;;;;2613656;47;21000;-77
2024/01/03 14:40:05;;;;;;;7.70;2.10;;;;;;;;;;2613882;54;20435;-76
2024/01/03 14:45:35;;;;;;;3.33;1.50;;;;;;;;;;2613028;54;20474;-75
2024/01/03 14:51:23;;;;;;;4.23;1.80;;;7.80;99.90;;;;;;2613637;54;20369;-77
2024/01/03 14:57:11;;;;;;;4.23;1.80;;;;;;;;;;2612842;54;20133;-77
2024/01/03 15:02:41;;;;;;;5.10;1.50;;;;;;;;;;2613865;54;20384;-75
2024/01/03 15:08:14;;;;;;;2.37;1.27;;;;;;;;;;2611355;54;20402;-77
2024/01/03 15:13:44;;;;;;;5.47;3.13;;;;;;;;;;2610341;39;20850;-75
2024/01/03 15:19:14;;;;;;;5.10;1.53;;;;;;;;;;2610967;54;20377;-75
2024/01/03 15:24:44;;;;;;;2.60;1.30;;;;;;;;;;2611446;54;20384;-74
2024/01/03 15:30:16;;;;;;;10.77;1.80;;;;;;;;;;2613584;54;20424;-75
2024/01/03 15:35:46;;;;;;;6.80;1.90;;;;;;;;;;2612689;54;20397;-75
2024/01/03 15:41:16;;;;;;;8.27;2.80;;;;;;;;;;2611339;54;20385;-77
2024/01/03 15:46:46;;;;;;;4.50;3.10;;;;;;;;;;2614052;54;20387;-77
2024/01/03 15:52:17;;;;;;;8.63;4.43;;;;;;;;;;2611960;54;20397;-77
2024/01/03 15:57:46;;;;;;;10.30;3.60;;;;;;;;;;2614131;54;20370;-77
2024/01/03 16:03:16;;;;;;;4.00;1.60;;;;;;;;;;2613135;54;20418;-77
2024/01/03 16:08:46;;;;;;;10.37;5.00;;;;;;;;;;2613985;54;20388;-77
2024/01/03 16:14:18;;;;;;;21.77;6.90;;;;;;;;;;2612525;54;20474;-77
2024/01/03 16:17:06;;;;;;;5.40;2.73;;;;;;;;;;2614306;47;20411;-78
2024/01/03 16:19:33;;;;;;;20.27;2.80;;;;;;;;;;2615339;47;20411;-77
2024/01/03 16:25:10;;;;;;;7.37;1.30;;;;;;;;;;2614730;54;20379;-77
2024/01/03 16:30:40;;;;;;;3.23;0.80;;;;;;;;;;2616327;54;20385;-77
2024/01/03 16:36:10;;;;;;;4.40;1.40;;;;;;;;;;2615098;54;20985;-77
2024/01/03 16:45:14;;;;;;;6.43;3.10;;;;;;;;;;2615928;54;20392;-77
2024/01/03 16:50:44;;;;;;;1.07;0.83;;;;;;;;;;2614453;54;20932;-77
2024/01/03 16:56:14;;;;;;;5.07;1.40;;;;;;;;;;2614006;54;20518;-76
2024/01/03 17:01:43;;;;;;;4.00;0.87;;;;;;;;;;2611688;54;20384;-77
2024/01/03 17:07:13;;;;;;;2.27;1.00;;;;;;;;;;2613297;54;20365;-76
2024/01/03 17:12:43;;;;;;;1.33;0.90;;;;;;;;;;2612487;54;20413;-75
2024/01/03 17:18:13;;;;;;;3.23;1.60;;;;;;;;;;2613968;54;20937;-77
2024/01/03 17:23:43;;;;;;;4.57;2.97;;;;;;;;;;2612155;54;20410;-77
2024/01/03 17:29:13;;;;;;;4.10;2.67;;;;;;;;;;2611526;54;20358;-75
2024/01/03 17:34:42;;;;;;;4.90;1.97;;;;;;;;;;2613446;54;20334;-77
2024/01/03 17:40:12;;;;;;;4.83;4.17;;;;;;;;;;2613622;39;20870;-77
2024/01/03 17:45:42;;;;;;;4.00;2.20;;;;;;;;;;2614488;54;20425;-77
2024/01/03 17:51:12;;;;;;;5.90;2.37;;;;;;;;;;2611673;54;20397;-75
2024/01/03 17:56:42;;;;;;;3.83;1.73;;;;;;;;;;2612962;54;20366;-76
2024/01/03 18:02:11;;;;;;;2.10;1.73;;;;;;;;;;2608877;54;20368;-76
2024/01/03 18:07:42;;;;;;;5.83;1.73;;;;;;;;;;2611842;54;20346;-77
2024/01/03 18:13:11;;;;;;;3.73;1.47;;;;;;;;;;2611670;54;20408;-76
2024/01/03 18:18:41;;;;;;;2.80;1.17;;;;;;;;;;2608984;54;20434;-76
2024/01/03 18:24:11;;;;;;;4.13;1.50;;;;;;;;;;2610617;54;20393;-77
2024/01/03 18:29:41;;;;;;;8.00;2.73;;;;;;;;;;2610892;54;20373;-75
2024/01/03 18:35:10;;;;;;;6.63;1.63;;;;;;;;;;2606825;54;20480;-76
2024/01/03 18:40:40;;;;;;;9.10;4.37;;;;;;;;;;2610783;54;20378;-77
2024/01/03 18:55:38;;;;;;;6.23;2.60;;;;;;;;;;2608395;54;20520;-79
2024/01/03 19:01:07;;;;;;;5.37;2.03;;;;;;;;;;2610659;54;20390;-76
2024/01/03 19:06:36;;;;;;;8.90;5.17;;;;;;;;;;2609629;54;20397;-77
2024/01/03 19:12:06;;;;;;;12.70;2.93;;;;;;;;;;2607073;54;20381;-77
2024/01/03 19:17:36;;;;;;;11.03;3.40;;;;;;;;;;2606996;54;20942;-77
2024/01/03 19:23:05;;;;;;;6.80;2.07;;;;;;;;;;2611868;54;20945;-76
2024/01/03 19:28:35;;;;;;;11.33;3.10;;;;;;;;;;2612854;54;20375;-78
2024/01/03 19:34:04;;;;;;;5.43;2.50;;;;;;;;;;2613912;54;20397;-77
2024/01/03 19:39:34;;;;;;;3.80;1.90;;;;;;;;;;2611000;54;20921;-77
2024/01/03 19:45:05;;;;;;;7.63;2.73;;;;;;;;;;2614868;54;20393;-77
2024/01/03 19:50:35;;;;;;;6.40;2.17;;;;;;;;;;2614330;54;20376;-77
2024/01/03 19:56:05;;;;;;;9.93;3.60;;;;;;;;;;2613890;39;20780;-73
2024/01/03 20:01:34;;;;;;;5.30;1.90;;;;;;;;;;2614170;54;20903;-74
2024/01/03 20:07:05;;;;;;;7.23;1.30;;;;;;;;;;2614243;54;20386;-73
2024/01/03 20:12:35;;;;;;;5.60;1.93;;;;;;;;;;2612160;54;20384;-75
2024/01/03 20:18:05;;;;;;;2.30;2.03;;;;;;;;;;2613233;54;20381;-73
2024/01/03 20:23:35;;;;;;;13.83;4.87;;;;;;;;;;2611826;54;20365;-75
2024/01/03 20:29:07;;;;;;;2.90;1.70;;;;;;;;;;2612028;39;20747;-74
2024/01/03 20:34:37;;;;;;;2.43;1.10;;;;;;;;;;2609804;54;20355;-77
2024/01/03 20:40:09;;;;;;;5.33;2.40;;;;;;;;;;2611015;54;20933;-73
2024/01/03 20:51:47;;;;;;;4.60;1.90;;;;;;;;;;2613578;54;20373;-74
2024/01/03 20:57:35;;;;;;;7.53;3.00;;;8.20;99.90;;;;;;2610752;54;20496;-75
2024/01/03 21:03:23;;;;;;;4.00;3.00;;;8.30;99.90;;;;;;2610802;54;20126;-76
2024/01/03 21:09:11;;;;;;;4.33;2.70;;;8.10;99.90;;;;;;2610546;54;20234;-76
2024/01/03 21:14:58;;;;;;;2.10;1.43;;;8.20;99.90;;;;;;2611161;54;20405;-80
2024/01/03 21:20:46;;;;;;;1.00;0.90;;;8.30;99.90;;;;;;2611000;54;20142;-78
2024/01/03 21:26:36;;;;;;;1.80;1.00;;;7.50;99.90;;;;;;2610502;54;20402;-78
2024/01/03 21:32:23;;;;;;;2.13;1.70;;;7.90;99.90;;;;;;2610287;54;20416;-76
2024/01/03 21:38:17;;;;;;;4.30;3.67;;;8.10;99.90;;;;;;2613708;54;20137;-75
2024/01/03 21:44:04;;;;;;;1.20;0.77;;;8.00;99.90;;;;;;2613661;54;20365;-76
2024/01/03 21:49:52;;;;;;;1.73;1.00;;;7.60;99.90;;;;;;2613193;54;20145;-75
2024/01/03 21:55:40;;;;;;;1.30;0.90;;;7.70;99.90;;;;;;2609308;54;20177;-76
2024/01/03 22:01:28;;;;;;;0.93;0.50;;;;;;;;;;2612068;54;20128;-77
2024/01/03 22:06:58;;;;;;;1.40;1.00;;;;;;;;;;2610112;54;20409;-76
2024/01/03 22:12:27;;;;;;;2.00;0.90;;;;;;;;;;2609722;54;20469;-75
2024/01/03 22:15:14;;;;;;;1.87;1.50;;;;;;;;;;2609036;54;20974;-75
2024/01/03 22:17:40;;;;;;;3.07;1.10;;;;;;;;;;2609380;54;20417;-75
2024/01/03 22:23:10;;;;;;;1.97;1.10;;;;;;;;;;2611048;54;20397;-75
2024/01/03 22:28:39;;;;;;;0.73;0.50;;;;;;;;;;2612303;54;20389;-76
2024/01/03 22:34:09;;;;;;;1.40;0.87;;;;;;;;;;2609656;54;20416;-74
2024/01/03 22:39:39;;;;;;;1.90;1.53;;;;;;;;;;2609487;54;20514;-75
2024/01/03 22:45:09;;;;;;;2.20;0.80;;;;;;;;;;2607780;54;21614;-75
2024/01/03 22:50:38;;;;;;;1.93;1.00;;;;;;;;;;2609921;54;20356;-75
2024/01/03 22:56:08;;;;;;;0.70;0.50;;;7.20;99.90;;;;;;2610878;54;20381;-75
2024/01/03 23:01:40;;;;;;;2.60;1.50;;;;;;;;;;2610351;54;20136;-76
2024/01/03 23:04:25;;;;;;;2.00;1.07;;;;;;;;;;2610870;54;20429;-75
2024/01/03 23:06:51;;;;;;;1.67;1.03;;;;;;;;;;2610548;54;20425;-74
2024/01/03 23:12:20;;;;;;;8.03;1.30;;;;;;;;;;2610589;54;20392;-78
2024/01/03 23:17:51;;;;;;;3.13;1.40;;;;;;;;;;2611445;39;20752;-75
2024/01/03 23:23:21;;;;;;;0.70;0.53;;;;;;;;;;2610755;54;21465;-76
2024/01/03 23:28:51;;;;;;;6.17;1.83;;;;;;;;;;2611015;54;20363;-74
2024/01/03 23:34:20;;;;;;;1.27;0.70;;;;;;;;;;2610630;54;21249;-74
2024/01/03 23:39:50;;;;;;;1.27;0.80;;;;;;;;;;2610998;54;20405;-74
2024/01/03 23:45:26;;;;;;;1.20;0.90;;;;;;;;;;2610462;54;20349;-78
2024/01/03 23:50:55;;;;;;;2.67;0.80;;;;;;;;;;2611071;54;20367;-76
2024/01/03 23:56:25;;;;;;;2.10;1.17;;;;;;;;;;2610644;54;20368;-78
